PWSweather.com
Personal Weather Stations
Station Observations
MAKAWAOWX1
Up Country Maui, Makawao, HI 96768

Up Country MauiMakawao, HI 96768

Lat: 20.856944, Lon: -156.3149667

Elevation: 1500

Station Type: Davis Vantage Pro

www.dwayneyamato@hawaiiantel.net

High Low Average
Temperature 72.5°F22.5°F 60.3°F15.7°F 65.0°F18.3°F
Dew Point 61.3°F16.3°F 52.8°F11.6°F 57.0°F13.9°F
Winds 9.2 mph ENE14.8 mph ENE Calm Calm 3.2 mph 5.1 mph
Wind Gusts 20.7 mph33.3 mph -- 8.0 mph12.9 mph
Humidity 87% 62% 76%
Pressure 30.12 in1020.00 in 30.00 in1015.90 in -
Precipitation 0.00 in0.00 in - -
Hour Temp Dew Point Humidity Winds Wind Gusts Pressure Precip Precip Rate Daily Precip Total
12:00 AM 63.2°F17.3°C 58.3°F14.6°C 84% 3.5 mph E5.6 kmh E 9.2 mph14.8 kmh 30.12 in1020.0 mb - 0.00 in0.0 mm 0.00 in0.0 mm
12:10 AM 63.4°F17.4°C 58.5°F14.7°C 84% 3.5 mph E5.6 kmh E 11.5 mph18.5 kmh 30.12 in1020.0 mb - 0.00 in0.0 mm 0.00 in0.0 mm
12:20 AM 63.4°F17.4°C 58.8°F14.9°C 85% 3.5 mph E5.6 kmh E 6.9 mph11.1 kmh 30.12 in1020.0 mb - 0.00 in0.0 mm 0.00 in0.0 mm
12:30 AM 63.4°F17.4°C 58.1°F14.5°C 83% 6.9 mph ESE11.1 kmh ESE 11.5 mph18.5 kmh 30.12 in1020.0 mb - 0.00 in0.0 mm 0.00 in0.0 mm
12:40 AM 63.4°F17.4°C 58.1°F14.5°C 83% 4.6 mph E7.4 kmh E 4.6 mph7.4 kmh 30.11 in1019.6 mb - 0.00 in0.0 mm 0.00 in0.0 mm
12:50 AM 63.3°F17.4°C 58.4°F14.7°C 84% 3.5 mph E5.6 kmh E -- 30.12 in1020.0 mb - 0.00 in0.0 mm 0.00 in0.0 mm
01:00 AM 63.3°F17.4°C 58.7°F14.8°C 85% 3.5 mph E5.6 kmh E 9.2 mph14.8 kmh 30.11 in1019.6 mb - 0.00 in0.0 mm 0.00 in0.0 mm
01:10 AM 63.1°F17.3°C 58.5°F14.7°C 85% 3.5 mph E5.6 kmh E 9.2 mph14.8 kmh 30.12 in1020.0 mb - 0.00 in0.0 mm 0.00 in0.0 mm
01:20 AM 63.1°F17.3°C 58.5°F14.7°C 85% 2.3 mph ENE3.7 kmh ENE 11.5 mph18.5 kmh 30.12 in1020.0 mb - 0.00 in0.0 mm 0.00 in0.0 mm
01:30 AM 63.2°F17.3°C 58.9°F14.9°C 86% Calm Calm 3.5 mph5.6 kmh 30.11 in1019.6 mb - 0.00 in0.0 mm 0.00 in0.0 mm
01:40 AM 63.2°F17.3°C 59.0°F15.0°C 86% 1.2 mph E1.9 kmh E 8.1 mph13.0 kmh 30.11 in1019.6 mb - 0.00 in0.0 mm 0.00 in0.0 mm
01:50 AM 63.1°F17.3°C 58.8°F14.9°C 86% 4.6 mph ENE7.4 kmh ENE 9.2 mph14.8 kmh 30.11 in1019.6 mb - 0.00 in0.0 mm 0.00 in0.0 mm
02:00 AM 63.1°F17.3°C 59.2°F15.1°C 87% 3.5 mph ENE5.6 kmh ENE 4.6 mph7.4 kmh 30.10 in1019.3 mb - 0.00 in0.0 mm 0.00 in0.0 mm
02:10 AM 62.9°F17.2°C 59.0°F15.0°C 87% 5.8 mph E9.3 kmh E 10.4 mph16.7 kmh 30.10 in1019.3 mb - 0.00 in0.0 mm 0.00 in0.0 mm
02:20 AM 63.0°F17.2°C 59.1°F15.1°C 87% 4.6 mph ENE7.4 kmh ENE 6.9 mph11.1 kmh 30.10 in1019.3 mb - 0.00 in0.0 mm 0.00 in0.0 mm
02:30 AM 62.8°F17.1°C 58.5°F14.7°C 86% 6.9 mph E11.1 kmh E 8.1 mph13.0 kmh 30.09 in1019.0 mb - 0.00 in0.0 mm 0.00 in0.0 mm
02:40 AM 62.8°F17.1°C 58.2°F14.6°C 85% 3.5 mph ENE5.6 kmh ENE 6.9 mph11.1 kmh 30.09 in1019.0 mb - 0.00 in0.0 mm 0.00 in0.0 mm
02:50 AM 62.7°F17.1°C 58.5°F14.7°C 86% 4.6 mph ENE7.4 kmh ENE 10.4 mph16.7 kmh 30.09 in1019.0 mb - 0.00 in0.0 mm 0.00 in0.0 mm
03:00 AM 62.6°F17.0°C 58.7°F14.8°C 87% 2.3 mph E3.7 kmh E 8.1 mph13.0 kmh 30.09 in1019.0 mb - 0.00 in0.0 mm 0.00 in0.0 mm
03:10 AM 62.3°F16.8°C 58.4°F14.7°C 87% 6.9 mph E11.1 kmh E 11.5 mph18.5 kmh 30.09 in1019.0 mb - 0.00 in0.0 mm 0.00 in0.0 mm
03:20 AM 62.3°F16.8°C 58.4°F14.7°C 87% 4.6 mph ENE7.4 kmh ENE 10.4 mph16.7 kmh 30.08 in1018.6 mb - 0.00 in0.0 mm 0.00 in0.0 mm
03:30 AM 62.3°F16.8°C 58.4°F14.7°C 87% 5.8 mph ENE9.3 kmh ENE 11.5 mph18.5 kmh 30.08 in1018.6 mb - 0.00 in0.0 mm 0.00 in0.0 mm
03:40 AM 62.4°F16.9°C 58.5°F14.7°C 87% 6.9 mph E11.1 kmh E 10.4 mph16.7 kmh 30.08 in1018.6 mb - 0.00 in0.0 mm 0.00 in0.0 mm
03:50 AM 62.3°F16.8°C 58.4°F14.7°C 87% 3.5 mph E5.6 kmh E 8.1 mph13.0 kmh 30.08 in1018.6 mb - 0.00 in0.0 mm 0.00 in0.0 mm
04:00 AM 62.1°F16.7°C 58.2°F14.6°C 87% 2.3 mph E3.7 kmh E 11.5 mph18.5 kmh 30.07 in1018.3 mb - 0.00 in0.0 mm 0.00 in0.0 mm
04:10 AM 62.0°F16.7°C 58.0°F14.4°C 87% 4.6 mph E7.4 kmh E 10.4 mph16.7 kmh 30.07 in1018.3 mb - 0.00 in0.0 mm 0.00 in0.0 mm
04:20 AM 62.0°F16.7°C 57.8°F14.3°C 86% 4.6 mph E7.4 kmh E 11.5 mph18.5 kmh 30.07 in1018.3 mb - 0.00 in0.0 mm 0.00 in0.0 mm
04:30 AM 61.9°F16.6°C 57.4°F14.1°C 85% 5.8 mph E9.3 kmh E 17.3 mph27.8 kmh 30.07 in1018.3 mb - 0.00 in0.0 mm 0.00 in0.0 mm
04:40 AM 62.1°F16.7°C 56.9°F13.8°C 83% 3.5 mph E5.6 kmh E 8.1 mph13.0 kmh 30.07 in1018.3 mb - 0.00 in0.0 mm 0.00 in0.0 mm
04:50 AM 62.2°F16.8°C 56.0°F13.3°C 80% 1.2 mph E1.9 kmh E 10.4 mph16.7 kmh 30.06 in1017.9 mb - 0.00 in0.0 mm 0.00 in0.0 mm
05:00 AM 62.1°F16.7°C 54.4°F12.4°C 76% 1.2 mph E1.9 kmh E -- 30.07 in1018.3 mb - 0.00 in0.0 mm 0.00 in0.0 mm
05:10 AM 62.0°F16.7°C 54.0°F12.2°C 75% 3.5 mph E5.6 kmh E 8.1 mph13.0 kmh 30.07 in1018.3 mb - 0.00 in0.0 mm 0.00 in0.0 mm
05:20 AM 62.0°F16.7°C 54.3°F12.4°C 76% 3.5 mph E5.6 kmh E 6.9 mph11.1 kmh 30.07 in1018.3 mb - 0.00 in0.0 mm 0.00 in0.0 mm
05:30 AM 62.0°F16.7°C 54.0°F12.2°C 75% 3.5 mph E5.6 kmh E 16.1 mph25.9 kmh 30.07 in1018.3 mb - 0.00 in0.0 mm 0.00 in0.0 mm
05:40 AM 62.1°F16.7°C 54.1°F12.3°C 75% 1.2 mph E1.9 kmh E 11.5 mph18.5 kmh 30.07 in1018.3 mb - 0.00 in0.0 mm 0.00 in0.0 mm
05:50 AM 61.8°F16.6°C 53.8°F12.1°C 75% 4.6 mph E7.4 kmh E 6.9 mph11.1 kmh 30.08 in1018.6 mb - 0.00 in0.0 mm 0.00 in0.0 mm
06:00 AM 61.6°F16.4°C 54.0°F12.2°C 76% 1.2 mph E1.9 kmh E 5.8 mph9.3 kmh 30.08 in1018.6 mb - 0.00 in0.0 mm 0.00 in0.0 mm
06:10 AM 61.3°F16.3°C 53.7°F12.1°C 76% Calm Calm -- 30.08 in1018.6 mb - 0.00 in0.0 mm 0.00 in0.0 mm
06:20 AM 61.1°F16.2°C 53.5°F11.9°C 76% 1.2 mph E1.9 kmh E 3.5 mph5.6 kmh 30.08 in1018.6 mb - 0.00 in0.0 mm 0.00 in0.0 mm
06:30 AM 61.2°F16.2°C 54.3°F12.4°C 78% 1.2 mph E1.9 kmh E 9.2 mph14.8 kmh 30.08 in1018.6 mb - 0.00 in0.0 mm 0.00 in0.0 mm
06:40 AM 61.0°F16.1°C 53.7°F12.1°C 77% 1.2 mph E1.9 kmh E 6.9 mph11.1 kmh 30.09 in1019.0 mb - 0.00 in0.0 mm 0.00 in0.0 mm
06:50 AM 60.8°F16.0°C 52.8°F11.6°C 75% 1.2 mph E1.9 kmh E 6.9 mph11.1 kmh 30.09 in1019.0 mb - 0.00 in0.0 mm 0.00 in0.0 mm
07:00 AM 61.1°F16.2°C 53.1°F11.7°C 75% 1.2 mph E1.9 kmh E 6.9 mph11.1 kmh 30.09 in1019.0 mb - 0.00 in0.0 mm 0.00 in0.0 mm
07:10 AM 61.4°F16.3°C 53.4°F11.9°C 75% Calm Calm -- 30.09 in1019.0 mb - 0.00 in0.0 mm 0.00 in0.0 mm
07:20 AM 61.6°F16.4°C 53.6°F12.0°C 75% 1.2 mph E1.9 kmh E 6.9 mph11.1 kmh 30.09 in1019.0 mb - 0.00 in0.0 mm 0.00 in0.0 mm
07:30 AM 62.0°F16.7°C 54.4°F12.4°C 76% 2.3 mph E3.7 kmh E 6.9 mph11.1 kmh 30.10 in1019.3 mb - 0.00 in0.0 mm 0.00 in0.0 mm
07:40 AM 62.2°F16.8°C 54.5°F12.5°C 76% 4.6 mph E7.4 kmh E 6.9 mph11.1 kmh 30.10 in1019.3 mb - 0.00 in0.0 mm 0.00 in0.0 mm
07:50 AM 62.5°F16.9°C 55.2°F12.9°C 77% 1.2 mph E1.9 kmh E 10.4 mph16.7 kmh 30.10 in1019.3 mb - 0.00 in0.0 mm 0.00 in0.0 mm
08:00 AM 63.1°F17.3°C 55.7°F13.2°C 77% 2.3 mph E3.7 kmh E 9.2 mph14.8 kmh 30.11 in1019.6 mb - 0.00 in0.0 mm 0.00 in0.0 mm
08:10 AM 64.1°F17.8°C 56.8°F13.8°C 77% 2.3 mph E3.7 kmh E 8.1 mph13.0 kmh 30.10 in1019.3 mb - 0.00 in0.0 mm 0.00 in0.0 mm
08:20 AM 65.3°F18.5°C 57.6°F14.2°C 76% 1.2 mph E1.9 kmh E -- 30.11 in1019.6 mb - 0.00 in0.0 mm 0.00 in0.0 mm
08:30 AM 66.2°F19.0°C 58.0°F14.4°C 75% 5.8 mph E9.3 kmh E 10.4 mph16.7 kmh 30.11 in1019.6 mb - 0.00 in0.0 mm 0.00 in0.0 mm
08:40 AM 66.0°F18.9°C 58.3°F14.6°C 76% 4.6 mph ENE7.4 kmh ENE 10.4 mph16.7 kmh 30.11 in1019.6 mb - 0.00 in0.0 mm 0.00 in0.0 mm
08:50 AM 65.7°F18.7°C 58.6°F14.8°C 78% Calm Calm 3.5 mph5.6 kmh 30.11 in1019.6 mb - 0.00 in0.0 mm 0.00 in0.0 mm
09:00 AM 65.8°F18.8°C 58.7°F14.8°C 78% 1.2 mph ENE1.9 kmh ENE 3.5 mph5.6 kmh 30.12 in1020.0 mb - 0.00 in0.0 mm 0.00 in0.0 mm
09:10 AM 66.2°F19.0°C 59.1°F15.1°C 78% 4.6 mph ENE7.4 kmh ENE 3.5 mph5.6 kmh 30.12 in1020.0 mb - 0.00 in0.0 mm 0.00 in0.0 mm
09:20 AM 66.0°F18.9°C 59.3°F15.2°C 79% 2.3 mph ENE3.7 kmh ENE 12.7 mph20.4 kmh 30.12 in1020.0 mb - 0.00 in0.0 mm 0.00 in0.0 mm
09:30 AM 65.6°F18.7°C 59.0°F15.0°C 79% 6.9 mph E11.1 kmh E 11.5 mph18.5 kmh 30.12 in1020.0 mb - 0.00 in0.0 mm 0.00 in0.0 mm
09:40 AM 66.5°F19.2°C 60.1°F15.6°C 80% 3.5 mph ENE5.6 kmh ENE 12.7 mph20.4 kmh 30.12 in1020.0 mb - 0.00 in0.0 mm 0.00 in0.0 mm
09:50 AM 67.5°F19.7°C 60.4°F15.8°C 78% 2.3 mph NE3.7 kmh NE 12.7 mph20.4 kmh 30.12 in1020.0 mb - 0.00 in0.0 mm 0.00 in0.0 mm
10:00 AM 68.4°F20.2°C 60.2°F15.7°C 75% 3.5 mph E5.6 kmh E 6.9 mph11.1 kmh 30.12 in1020.0 mb - 0.00 in0.0 mm 0.00 in0.0 mm
10:10 AM 68.2°F20.1°C 60.0°F15.6°C 75% 9.2 mph ENE14.8 kmh ENE 11.5 mph18.5 kmh 30.12 in1020.0 mb - 0.00 in0.0 mm 0.00 in0.0 mm
10:20 AM 67.9°F19.9°C 59.7°F15.4°C 75% 5.8 mph ENE9.3 kmh ENE 6.9 mph11.1 kmh 30.12 in1020.0 mb - 0.00 in0.0 mm 0.00 in0.0 mm
10:30 AM 68.1°F20.1°C 60.7°F15.9°C 77% 3.5 mph NE5.6 kmh NE 5.8 mph9.3 kmh 30.12 in1020.0 mb - 0.00 in0.0 mm 0.00 in0.0 mm
10:40 AM 69.7°F20.9°C 61.0°F16.1°C 74% 5.8 mph ENE9.3 kmh ENE 11.5 mph18.5 kmh 30.12 in1020.0 mb - 0.00 in0.0 mm 0.00 in0.0 mm
10:50 AM 70.3°F21.3°C 60.4°F15.8°C 71% 6.9 mph ENE11.1 kmh ENE 9.2 mph14.8 kmh 30.11 in1019.6 mb - 0.00 in0.0 mm 0.00 in0.0 mm
11:00 AM 70.8°F21.6°C 60.5°F15.8°C 70% 9.2 mph ENE14.8 kmh ENE 15.0 mph24.1 kmh 30.11 in1019.6 mb - 0.00 in0.0 mm 0.00 in0.0 mm
11:10 AM 71.6°F22.0°C 61.2°F16.2°C 70% 4.6 mph E7.4 kmh E 3.5 mph5.6 kmh 30.11 in1019.6 mb - 0.00 in0.0 mm 0.00 in0.0 mm
11:20 AM 72.1°F22.3°C 61.3°F16.3°C 69% 8.1 mph ENE13.0 kmh ENE 11.5 mph18.5 kmh 30.10 in1019.3 mb - 0.00 in0.0 mm 0.00 in0.0 mm
11:30 AM 72.4°F22.4°C 61.2°F16.2°C 68% 9.2 mph NE14.8 kmh NE 12.7 mph20.4 kmh 30.10 in1019.3 mb - 0.00 in0.0 mm 0.00 in0.0 mm
11:40 AM 71.7°F22.1°C 60.6°F15.9°C 68% 8.1 mph ENE13.0 kmh ENE 11.5 mph18.5 kmh 30.10 in1019.3 mb - 0.00 in0.0 mm 0.00 in0.0 mm
11:50 AM 72.1°F22.3°C 60.9°F16.1°C 68% 8.1 mph NE13.0 kmh NE 17.3 mph27.8 kmh 30.09 in1019.0 mb - 0.00 in0.0 mm 0.00 in0.0 mm
12:00 PM 72.1°F22.3°C 60.5°F15.8°C 67% 6.9 mph NE11.1 kmh NE 12.7 mph20.4 kmh 30.09 in1019.0 mb - 0.00 in0.0 mm 0.00 in0.0 mm
12:10 PM 71.6°F22.0°C 59.6°F15.3°C 66% 4.6 mph ENE7.4 kmh ENE 9.2 mph14.8 kmh 30.08 in1018.6 mb - 0.00 in0.0 mm 0.00 in0.0 mm
12:20 PM 71.9°F22.2°C 60.3°F15.7°C 67% 6.9 mph ENE11.1 kmh ENE 11.5 mph18.5 kmh 30.08 in1018.6 mb - 0.00 in0.0 mm 0.00 in0.0 mm
12:30 PM 72.1°F22.3°C 60.1°F15.6°C 66% 4.6 mph ENE7.4 kmh ENE 11.5 mph18.5 kmh 30.07 in1018.3 mb - 0.00 in0.0 mm 0.00 in0.0 mm
12:40 PM 72.4°F22.4°C 60.0°F15.6°C 65% 4.6 mph E7.4 kmh E 16.1 mph25.9 kmh 30.07 in1018.3 mb - 0.00 in0.0 mm 0.00 in0.0 mm
12:50 PM 71.0°F21.7°C 59.5°F15.3°C 67% 6.9 mph ENE11.1 kmh ENE 12.7 mph20.4 kmh 30.07 in1018.3 mb - 0.00 in0.0 mm 0.00 in0.0 mm
01:00 PM 71.3°F21.8°C 59.4°F15.2°C 66% 4.6 mph ENE7.4 kmh ENE 9.2 mph14.8 kmh 30.06 in1017.9 mb - 0.00 in0.0 mm 0.00 in0.0 mm
01:10 PM 71.4°F21.9°C 59.8°F15.4°C 67% 2.3 mph ENE3.7 kmh ENE 10.4 mph16.7 kmh 30.06 in1017.9 mb - 0.00 in0.0 mm 0.00 in0.0 mm
01:20 PM 72.4°F22.4°C 60.4°F15.8°C 66% 1.2 mph NE1.9 kmh NE 10.4 mph16.7 kmh 30.05 in1017.6 mb - 0.00 in0.0 mm 0.00 in0.0 mm
01:30 PM 72.3°F22.4°C 59.4°F15.2°C 64% 3.5 mph E5.6 kmh E 10.4 mph16.7 kmh 30.05 in1017.6 mb - 0.00 in0.0 mm 0.00 in0.0 mm
01:40 PM 72.1°F22.3°C 58.8°F14.9°C 63% 5.8 mph ENE9.3 kmh ENE 13.8 mph22.2 kmh 30.04 in1017.3 mb - 0.00 in0.0 mm 0.00 in0.0 mm
01:50 PM 71.9°F22.2°C 59.1°F15.1°C 64% 5.8 mph ENE9.3 kmh ENE 13.8 mph22.2 kmh 30.03 in1016.9 mb - 0.00 in0.0 mm 0.00 in0.0 mm
02:00 PM 72.5°F22.5°C 59.1°F15.1°C 63% 6.9 mph ENE11.1 kmh ENE 13.8 mph22.2 kmh 30.02 in1016.6 mb - 0.00 in0.0 mm 0.00 in0.0 mm
02:10 PM 71.9°F22.2°C 58.6°F14.8°C 63% 1.2 mph NE1.9 kmh NE 15.0 mph24.1 kmh 30.02 in1016.6 mb - 0.00 in0.0 mm 0.00 in0.0 mm
02:20 PM 71.5°F21.9°C 57.8°F14.3°C 62% 8.1 mph NE13.0 kmh NE 13.8 mph22.2 kmh 30.02 in1016.6 mb - 0.00 in0.0 mm 0.00 in0.0 mm
02:30 PM 70.7°F21.5°C 57.5°F14.2°C 63% 5.8 mph E9.3 kmh E 13.8 mph22.2 kmh 30.02 in1016.6 mb - 0.00 in0.0 mm 0.00 in0.0 mm
02:40 PM 70.9°F21.6°C 58.1°F14.5°C 64% 5.8 mph ENE9.3 kmh ENE 16.1 mph25.9 kmh 30.01 in1016.3 mb - 0.00 in0.0 mm 0.00 in0.0 mm
02:50 PM 71.0°F21.7°C 59.0°F15.0°C 66% 2.3 mph E3.7 kmh E 1.2 mph1.9 kmh 30.01 in1016.3 mb - 0.00 in0.0 mm 0.00 in0.0 mm
03:00 PM 71.4°F21.9°C 59.4°F15.2°C 66% 3.5 mph ENE5.6 kmh ENE 9.2 mph14.8 kmh 30.01 in1016.3 mb - 0.00 in0.0 mm 0.00 in0.0 mm
03:10 PM 71.0°F21.7°C 58.6°F14.8°C 65% 8.1 mph E13.0 kmh E 11.5 mph18.5 kmh 30.01 in1016.3 mb - 0.00 in0.0 mm 0.00 in0.0 mm
03:20 PM 71.2°F21.8°C 58.8°F14.9°C 65% 4.6 mph NE7.4 kmh NE 15.0 mph24.1 kmh 30.00 in1015.9 mb - 0.00 in0.0 mm 0.00 in0.0 mm
03:30 PM 70.2°F21.2°C 57.5°F14.2°C 64% 9.2 mph ENE14.8 kmh ENE 20.7 mph33.3 kmh 30.00 in1015.9 mb - 0.00 in0.0 mm 0.00 in0.0 mm
03:40 PM 70.2°F21.2°C 57.9°F14.4°C 65% 3.5 mph ENE5.6 kmh ENE 11.5 mph18.5 kmh 30.00 in1015.9 mb - 0.00 in0.0 mm 0.00 in0.0 mm
03:50 PM 70.4°F21.3°C 57.6°F14.2°C 64% 2.3 mph ENE3.7 kmh ENE 6.9 mph11.1 kmh 30.01 in1016.3 mb - 0.00 in0.0 mm 0.00 in0.0 mm
04:00 PM 70.1°F21.2°C 58.2°F14.6°C 66% 1.2 mph E1.9 kmh E 6.9 mph11.1 kmh 30.01 in1016.3 mb - 0.00 in0.0 mm 0.00 in0.0 mm
04:10 PM 70.4°F21.3°C 57.6°F14.2°C 64% 5.8 mph E9.3 kmh E 9.2 mph14.8 kmh 30.01 in1016.3 mb - 0.00 in0.0 mm 0.00 in0.0 mm
04:20 PM 69.7°F20.9°C 57.0°F13.9°C 64% 6.9 mph ENE11.1 kmh ENE 11.5 mph18.5 kmh 30.01 in1016.3 mb - 0.00 in0.0 mm 0.00 in0.0 mm
04:30 PM 69.4°F20.8°C 57.1°F13.9°C 65% 4.6 mph NE7.4 kmh NE 13.8 mph22.2 kmh 30.01 in1016.3 mb - 0.00 in0.0 mm 0.00 in0.0 mm
04:40 PM 68.4°F20.2°C 56.2°F13.4°C 65% 8.1 mph NE13.0 kmh NE 11.5 mph18.5 kmh 30.00 in1015.9 mb - 0.00 in0.0 mm 0.00 in0.0 mm
04:50 PM 68.6°F20.3°C 56.8°F13.8°C 66% 3.5 mph E5.6 kmh E 9.2 mph14.8 kmh 30.00 in1015.9 mb - 0.00 in0.0 mm 0.00 in0.0 mm
05:00 PM 68.4°F20.2°C 56.2°F13.4°C 65% 4.6 mph E7.4 kmh E 11.5 mph18.5 kmh 30.01 in1016.3 mb - 0.00 in0.0 mm 0.00 in0.0 mm
05:10 PM 67.2°F19.6°C 55.9°F13.3°C 67% 4.6 mph ENE7.4 kmh ENE 11.5 mph18.5 kmh 30.01 in1016.3 mb - 0.00 in0.0 mm 0.00 in0.0 mm
05:20 PM 66.7°F19.3°C 55.8°F13.2°C 68% Calm Calm 1.2 mph1.9 kmh 30.02 in1016.6 mb - 0.00 in0.0 mm 0.00 in0.0 mm
05:30 PM 66.7°F19.3°C 55.8°F13.2°C 68% 3.5 mph E5.6 kmh E 3.5 mph5.6 kmh 30.02 in1016.6 mb - 0.00 in0.0 mm 0.00 in0.0 mm
05:40 PM 65.9°F18.8°C 55.4°F13.0°C 69% 1.2 mph ENE1.9 kmh ENE 9.2 mph14.8 kmh 30.02 in1016.6 mb - 0.00 in0.0 mm 0.00 in0.0 mm
05:50 PM 65.5°F18.6°C 55.5°F13.1°C 70% 3.5 mph NE5.6 kmh NE 13.8 mph22.2 kmh 30.02 in1016.6 mb - 0.00 in0.0 mm 0.00 in0.0 mm
06:00 PM 65.2°F18.4°C 55.6°F13.1°C 71% Calm Calm -- 30.02 in1016.6 mb - 0.00 in0.0 mm 0.00 in0.0 mm
06:10 PM 64.9°F18.3°C 55.6°F13.1°C 72% 1.2 mph ENE1.9 kmh ENE 11.5 mph18.5 kmh 30.03 in1016.9 mb - 0.00 in0.0 mm 0.00 in0.0 mm
06:20 PM 64.3°F17.9°C 55.5°F13.1°C 73% 2.3 mph NE3.7 kmh NE 10.4 mph16.7 kmh 30.03 in1016.9 mb - 0.00 in0.0 mm 0.00 in0.0 mm
06:30 PM 63.7°F17.6°C 55.2°F12.9°C 74% Calm Calm -- 30.03 in1016.9 mb - 0.00 in0.0 mm 0.00 in0.0 mm
06:40 PM 63.1°F17.3°C 55.1°F12.8°C 75% Calm Calm -- 30.03 in1016.9 mb - 0.00 in0.0 mm 0.00 in0.0 mm
06:50 PM 62.7°F17.1°C 55.0°F12.8°C 76% Calm Calm -- 30.02 in1016.6 mb - 0.00 in0.0 mm 0.00 in0.0 mm
07:00 PM 62.2°F16.8°C 54.9°F12.7°C 77% 1.2 mph ENE1.9 kmh ENE 6.9 mph11.1 kmh 30.02 in1016.6 mb - 0.00 in0.0 mm 0.00 in0.0 mm
07:10 PM 61.8°F16.6°C 54.6°F12.6°C 77% 1.2 mph ENE1.9 kmh ENE 4.6 mph7.4 kmh 30.02 in1016.6 mb - 0.00 in0.0 mm 0.00 in0.0 mm
07:20 PM 61.6°F16.4°C 54.7°F12.6°C 78% Calm Calm -- 30.03 in1016.9 mb - 0.00 in0.0 mm 0.00 in0.0 mm
07:30 PM 61.4°F16.3°C 54.5°F12.5°C 78% Calm Calm 4.6 mph7.4 kmh 30.03 in1016.9 mb - 0.00 in0.0 mm 0.00 in0.0 mm
07:40 PM 61.2°F16.2°C 54.6°F12.6°C 79% Calm Calm 4.6 mph7.4 kmh 30.04 in1017.3 mb - 0.00 in0.0 mm 0.00 in0.0 mm
07:50 PM 60.9°F16.1°C 54.3°F12.4°C 79% Calm Calm -- 30.04 in1017.3 mb - 0.00 in0.0 mm 0.00 in0.0 mm
08:00 PM 60.7°F15.9°C 54.5°F12.5°C 80% 2.3 mph ENE3.7 kmh ENE 9.2 mph14.8 kmh 30.04 in1017.3 mb - 0.00 in0.0 mm 0.00 in0.0 mm
08:10 PM 60.7°F15.9°C 54.5°F12.5°C 80% Calm Calm -- 30.04 in1017.3 mb - 0.00 in0.0 mm 0.00 in0.0 mm
08:20 PM 60.6°F15.9°C 54.4°F12.4°C 80% Calm Calm -- 30.04 in1017.3 mb - 0.00 in0.0 mm 0.00 in0.0 mm
08:30 PM 60.5°F15.8°C 54.3°F12.4°C 80% Calm Calm 1.2 mph1.9 kmh 30.05 in1017.6 mb - 0.00 in0.0 mm 0.00 in0.0 mm
08:40 PM 60.6°F15.9°C 54.4°F12.4°C 80% 1.2 mph ENE1.9 kmh ENE 4.6 mph7.4 kmh 30.05 in1017.6 mb - 0.00 in0.0 mm 0.00 in0.0 mm
08:50 PM 60.6°F15.9°C 54.0°F12.2°C 79% 1.2 mph ENE1.9 kmh ENE 6.9 mph11.1 kmh 30.05 in1017.6 mb - 0.00 in0.0 mm 0.00 in0.0 mm
09:00 PM 60.6°F15.9°C 54.0°F12.2°C 79% 2.3 mph ENE3.7 kmh ENE 9.2 mph14.8 kmh 30.05 in1017.6 mb - 0.00 in0.0 mm 0.00 in0.0 mm
09:10 PM 60.6°F15.9°C 54.1°F12.3°C 79% Calm Calm -- 30.05 in1017.6 mb - 0.00 in0.0 mm 0.00 in0.0 mm
09:20 PM 60.5°F15.8°C 54.0°F12.2°C 79% Calm Calm -- 30.05 in1017.6 mb - 0.00 in0.0 mm 0.00 in0.0 mm
09:30 PM 60.3°F15.7°C 53.8°F12.1°C 79% Calm Calm -- 30.05 in1017.6 mb - 0.00 in0.0 mm 0.00 in0.0 mm
09:40 PM 60.4°F15.8°C 53.9°F12.2°C 79% 1.2 mph ENE1.9 kmh ENE 6.9 mph11.1 kmh 30.05 in1017.6 mb - 0.00 in0.0 mm 0.00 in0.0 mm
09:50 PM 60.7°F15.9°C 54.1°F12.3°C 79% 1.2 mph ENE1.9 kmh ENE 8.1 mph13.0 kmh 30.04 in1017.3 mb - 0.00 in0.0 mm 0.00 in0.0 mm
10:00 PM 60.8°F16.0°C 54.6°F12.6°C 80% Calm Calm 8.1 mph13.0 kmh 30.04 in1017.3 mb - 0.00 in0.0 mm 0.00 in0.0 mm
10:10 PM 61.0°F16.1°C 54.8°F12.7°C 80% Calm Calm -- 30.04 in1017.3 mb - 0.00 in0.0 mm 0.00 in0.0 mm
10:20 PM 61.0°F16.1°C 55.1°F12.8°C 81% 1.2 mph ENE1.9 kmh ENE -- 30.04 in1017.3 mb - 0.00 in0.0 mm 0.00 in0.0 mm
10:30 PM 60.9°F16.1°C 55.0°F12.8°C 81% Calm Calm -- 30.05 in1017.6 mb - 0.00 in0.0 mm 0.00 in0.0 mm
10:40 PM 60.9°F16.1°C 55.0°F12.8°C 81% Calm Calm 4.6 mph7.4 kmh 30.04 in1017.3 mb - 0.00 in0.0 mm 0.00 in0.0 mm
10:50 PM 60.8°F16.0°C 54.9°F12.7°C 81% 1.2 mph ENE1.9 kmh ENE -- 30.04 in1017.3 mb - 0.00 in0.0 mm 0.00 in0.0 mm
11:00 PM 60.7°F15.9°C 55.2°F12.9°C 82% 1.2 mph ENE1.9 kmh ENE 6.9 mph11.1 kmh 30.03 in1016.9 mb - 0.00 in0.0 mm 0.00 in0.0 mm
11:10 PM 60.7°F15.9°C 55.2°F12.9°C 82% 2.3 mph ENE3.7 kmh ENE 6.9 mph11.1 kmh 30.02 in1016.6 mb - 0.00 in0.0 mm 0.00 in0.0 mm
11:20 PM 60.7°F15.9°C 55.2°F12.9°C 82% Calm Calm 6.9 mph11.1 kmh 30.03 in1016.9 mb - 0.00 in0.0 mm 0.00 in0.0 mm
11:30 PM 60.7°F15.9°C 55.2°F12.9°C 82% Calm Calm 10.4 mph16.7 kmh 30.02 in1016.6 mb - 0.00 in0.0 mm 0.00 in0.0 mm
11:40 PM 60.7°F15.9°C 55.2°F12.9°C 82% 2.3 mph ENE3.7 kmh ENE 2.3 mph3.7 kmh 30.02 in1016.6 mb - 0.00 in0.0 mm 0.00 in0.0 mm
11:50 PM 60.7°F15.9°C 55.2°F12.9°C 82% 2.3 mph ENE3.7 kmh ENE 8.1 mph13.0 kmh 30.02 in1016.6 mb - 0.00 in0.0 mm 0.00 in0.0 mm